sensor_id;sensor_type;location;lat;lon;timestamp;P1;durP1;ratioP1;P2;durP2;ratioP2
2416;SDS011;1219;48.736;9.330;2023-09-19T00:01:05;2.27;;;1.10;;
2416;SDS011;1219;48.736;9.330;2023-09-19T00:03:37;1.13;;;1.03;;
2416;SDS011;1219;48.736;9.330;2023-09-19T00:06:04;2.27;;;1.20;;
2416;SDS011;1219;48.736;9.330;2023-09-19T00:08:32;1.30;;;1.20;;
2416;SDS011;1219;48.736;9.330;2023-09-19T00:10:58;2.07;;;1.20;;
2416;SDS011;1219;48.736;9.330;2023-09-19T00:13:30;2.90;;;1.20;;
2416;SDS011;1219;48.736;9.330;2023-09-19T00:15:56;1.90;;;1.47;;
2416;SDS011;1219;48.736;9.330;2023-09-19T00:18:24;1.00;;;1.00;;
2416;SDS011;1219;48.736;9.330;2023-09-19T00:20:57;1.40;;;1.30;;
2416;SDS011;1219;48.736;9.330;2023-09-19T00:23:23;1.10;;;1.00;;
2416;SDS011;1219;48.736;9.330;2023-09-19T00:25:49;1.30;;;1.20;;
2416;SDS011;1219;48.736;9.330;2023-09-19T00:28:16;2.23;;;1.40;;
2416;SDS011;1219;48.736;9.330;2023-09-19T00:30:43;1.10;;;1.00;;
2416;SDS011;1219;48.736;9.330;2023-09-19T00:33:09;2.33;;;1.07;;
2416;SDS011;1219;48.736;9.330;2023-09-19T00:35:36;1.33;;;1.23;;
2416;SDS011;1219;48.736;9.330;2023-09-19T00:38:02;1.20;;;1.10;;
2416;SDS011;1219;48.736;9.330;2023-09-19T00:40:28;0.90;;;0.90;;
2416;SDS011;1219;48.736;9.330;2023-09-19T00:42:57;1.30;;;1.10;;
2416;SDS011;1219;48.736;9.330;2023-09-19T00:45:26;2.07;;;1.00;;
2416;SDS011;1219;48.736;9.330;2023-09-19T00:47:53;1.20;;;1.00;;
2416;SDS011;1219;48.736;9.330;2023-09-19T00:50:19;1.33;;;1.20;;
2416;SDS011;1219;48.736;9.330;2023-09-19T00:52:48;1.50;;;1.10;;
2416;SDS011;1219;48.736;9.330;2023-09-19T00:55:15;0.90;;;0.90;;
2416;SDS011;1219;48.736;9.330;2023-09-19T00:57:41;2.10;;;1.10;;
2416;SDS011;1219;48.736;9.330;2023-09-19T01:00:09;1.30;;;1.10;;
2416;SDS011;1219;48.736;9.330;2023-09-19T01:02:38;1.07;;;1.00;;
2416;SDS011;1219;48.736;9.330;2023-09-19T01:05:04;1.40;;;1.20;;
2416;SDS011;1219;48.736;9.330;2023-09-19T01:07:31;1.10;;;1.00;;
2416;SDS011;1219;48.736;9.330;2023-09-19T01:10:02;2.30;;;1.27;;
2416;SDS011;1219;48.736;9.330;2023-09-19T01:12:33;1.80;;;1.10;;
2416;SDS011;1219;48.736;9.330;2023-09-19T01:15:08;1.10;;;1.00;;
2416;SDS011;1219;48.736;9.330;2023-09-19T01:17:41;1.10;;;1.00;;
2416;SDS011;1219;48.736;9.330;2023-09-19T01:20:21;1.27;;;1.17;;
2416;SDS011;1219;48.736;9.330;2023-09-19T01:28:39;1.27;;;1.00;;
2416;SDS011;1219;48.736;9.330;2023-09-19T01:31:01;1.33;;;1.20;;
2416;SDS011;1219;48.736;9.330;2023-09-19T01:33:28;1.20;;;1.10;;
2416;SDS011;1219;48.736;9.330;2023-09-19T01:35:59;1.40;;;1.30;;
2416;SDS011;1219;48.736;9.330;2023-09-19T01:38:24;1.10;;;1.07;;
2416;SDS011;1219;48.736;9.330;2023-09-19T01:41:01;0.97;;;0.93;;
2416;SDS011;1219;48.736;9.330;2023-09-19T01:43:31;0.97;;;0.97;;
2416;SDS011;1219;48.736;9.330;2023-09-19T01:46:59;6.83;;;1.63;;
2416;SDS011;1219;48.736;9.330;2023-09-19T01:51:22;1.20;;;1.10;;
2416;SDS011;1219;48.736;9.330;2023-09-19T01:53:51;1.80;;;1.17;;
2416;SDS011;1219;48.736;9.330;2023-09-19T01:56:29;1.27;;;1.17;;
2416;SDS011;1219;48.736;9.330;2023-09-19T01:58:59;1.23;;;1.13;;
2416;SDS011;1219;48.736;9.330;2023-09-19T02:01:29;1.30;;;1.20;;
2416;SDS011;1219;48.736;9.330;2023-09-19T02:03:55;1.40;;;1.30;;
2416;SDS011;1219;48.736;9.330;2023-09-19T02:06:21;1.10;;;1.00;;
2416;SDS011;1219;48.736;9.330;2023-09-19T02:08:51;1.53;;;1.10;;
2416;SDS011;1219;48.736;9.330;2023-09-19T02:11:17;3.13;;;1.10;;
2416;SDS011;1219;48.736;9.330;2023-09-19T02:13:43;1.20;;;1.00;;
2416;SDS011;1219;48.736;9.330;2023-09-19T02:16:09;1.60;;;1.27;;
2416;SDS011;1219;48.736;9.330;2023-09-19T02:18:36;1.57;;;1.10;;
2416;SDS011;1219;48.736;9.330;2023-09-19T02:21:02;1.13;;;1.03;;
2416;SDS011;1219;48.736;9.330;2023-09-19T02:23:29;1.30;;;1.20;;
2416;SDS011;1219;48.736;9.330;2023-09-19T02:25:55;3.30;;;1.10;;
2416;SDS011;1219;48.736;9.330;2023-09-19T02:28:23;1.47;;;1.30;;
2416;SDS011;1219;48.736;9.330;2023-09-19T02:30:49;1.20;;;1.13;;
2416;SDS011;1219;48.736;9.330;2023-09-19T02:33:15;1.63;;;1.10;;
2416;SDS011;1219;48.736;9.330;2023-09-19T02:35:42;1.40;;;1.30;;
2416;SDS011;1219;48.736;9.330;2023-09-19T02:38:08;1.20;;;1.10;;
2416;SDS011;1219;48.736;9.330;2023-09-19T02:40:36;1.20;;;1.10;;
2416;SDS011;1219;48.736;9.330;2023-09-19T02:43:02;2.57;;;1.10;;
2416;SDS011;1219;48.736;9.330;2023-09-19T02:45:28;1.80;;;1.10;;
2416;SDS011;1219;48.736;9.330;2023-09-19T02:47:55;2.00;;;1.10;;
2416;SDS011;1219;48.736;9.330;2023-09-19T02:50:21;0.90;;;0.90;;
2416;SDS011;1219;48.736;9.330;2023-09-19T02:52:47;2.30;;;1.20;;
2416;SDS011;1219;48.736;9.330;2023-09-19T02:55:13;1.27;;;1.03;;
2416;SDS011;1219;48.736;9.330;2023-09-19T02:57:45;1.00;;;0.90;;
2416;SDS011;1219;48.736;9.330;2023-09-19T03:00:11;1.03;;;1.03;;
2416;SDS011;1219;48.736;9.330;2023-09-19T03:02:37;1.37;;;1.20;;
2416;SDS011;1219;48.736;9.330;2023-09-19T03:05:06;1.30;;;1.20;;
2416;SDS011;1219;48.736;9.330;2023-09-19T03:07:32;1.63;;;1.10;;
2416;SDS011;1219;48.736;9.330;2023-09-19T03:09:58;1.33;;;1.20;;
2416;SDS011;1219;48.736;9.330;2023-09-19T03:12:25;1.50;;;1.40;;
2416;SDS011;1219;48.736;9.330;2023-09-19T03:14:51;1.80;;;1.20;;
2416;SDS011;1219;48.736;9.330;2023-09-19T03:17:17;1.20;;;1.10;;
2416;SDS011;1219;48.736;9.330;2023-09-19T03:19:45;1.20;;;1.10;;
2416;SDS011;1219;48.736;9.330;2023-09-19T03:22:12;1.30;;;1.20;;
2416;SDS011;1219;48.736;9.330;2023-09-19T03:24:38;1.27;;;1.17;;
2416;SDS011;1219;48.736;9.330;2023-09-19T03:27:04;2.70;;;1.30;;
2416;SDS011;1219;48.736;9.330;2023-09-19T03:29:30;2.30;;;1.37;;
2416;SDS011;1219;48.736;9.330;2023-09-19T03:31:56;1.50;;;1.40;;
2416;SDS011;1219;48.736;9.330;2023-09-19T03:34:22;1.33;;;1.23;;
2416;SDS011;1219;48.736;9.330;2023-09-19T03:36:48;1.40;;;1.20;;
2416;SDS011;1219;48.736;9.330;2023-09-19T03:39:14;6.93;;;1.23;;
2416;SDS011;1219;48.736;9.330;2023-09-19T03:41:41;1.80;;;1.40;;
2416;SDS011;1219;48.736;9.330;2023-09-19T03:44:07;2.30;;;1.27;;
2416;SDS011;1219;48.736;9.330;2023-09-19T03:46:33;1.80;;;1.20;;
2416;SDS011;1219;48.736;9.330;2023-09-19T03:49:00;1.30;;;1.20;;
2416;SDS011;1219;48.736;9.330;2023-09-19T03:51:26;1.30;;;1.20;;
2416;SDS011;1219;48.736;9.330;2023-09-19T03:53:52;2.70;;;1.30;;
2416;SDS011;1219;48.736;9.330;2023-09-19T03:56:18;1.37;;;1.27;;
2416;SDS011;1219;48.736;9.330;2023-09-19T03:58:44;1.70;;;1.27;;
2416;SDS011;1219;48.736;9.330;2023-09-19T04:01:10;2.00;;;1.40;;
2416;SDS011;1219;48.736;9.330;2023-09-19T04:03:38;1.20;;;1.10;;
2416;SDS011;1219;48.736;9.330;2023-09-19T04:06:16;3.73;;;1.40;;
2416;SDS011;1219;48.736;9.330;2023-09-19T04:08:42;1.30;;;1.20;;
2416;SDS011;1219;48.736;9.330;2023-09-19T04:11:09;3.43;;;1.30;;
2416;SDS011;1219;48.736;9.330;2023-09-19T04:13:35;1.70;;;1.60;;
2416;SDS011;1219;48.736;9.330;2023-09-19T04:16:01;1.73;;;1.20;;
2416;SDS011;1219;48.736;9.330;2023-09-19T04:18:29;1.93;;;1.20;;
2416;SDS011;1219;48.736;9.330;2023-09-19T04:20:58;1.27;;;1.17;;
2416;SDS011;1219;48.736;9.330;2023-09-19T04:23:26;1.27;;;1.17;;
2416;SDS011;1219;48.736;9.330;2023-09-19T04:25:53;1.40;;;1.30;;
2416;SDS011;1219;48.736;9.330;2023-09-19T04:28:19;1.50;;;1.40;;
2416;SDS011;1219;48.736;9.330;2023-09-19T04:30:45;1.40;;;1.30;;
2416;SDS011;1219;48.736;9.330;2023-09-19T04:33:11;1.50;;;1.40;;
2416;SDS011;1219;48.736;9.330;2023-09-19T04:35:39;1.97;;;1.40;;
2416;SDS011;1219;48.736;9.330;2023-09-19T04:38:07;1.60;;;1.50;;
2416;SDS011;1219;48.736;9.330;2023-09-19T04:40:33;1.83;;;1.50;;
2416;SDS011;1219;48.736;9.330;2023-09-19T04:43:00;2.67;;;1.80;;
2416;SDS011;1219;48.736;9.330;2023-09-19T04:45:26;1.60;;;1.50;;
2416;SDS011;1219;48.736;9.330;2023-09-19T04:47:53;1.53;;;1.43;;
2416;SDS011;1219;48.736;9.330;2023-09-19T04:50:19;3.37;;;1.60;;
2416;SDS011;1219;48.736;9.330;2023-09-19T04:52:46;1.77;;;1.17;;
2416;SDS011;1219;48.736;9.330;2023-09-19T04:55:16;3.10;;;1.47;;
2416;SDS011;1219;48.736;9.330;2023-09-19T04:57:46;2.03;;;1.50;;
2416;SDS011;1219;48.736;9.330;2023-09-19T05:00:16;1.40;;;1.20;;
2416;SDS011;1219;48.736;9.330;2023-09-19T05:02:45;2.03;;;1.63;;
2416;SDS011;1219;48.736;9.330;2023-09-19T05:05:11;2.13;;;1.30;;
2416;SDS011;1219;48.736;9.330;2023-09-19T05:07:40;2.50;;;1.60;;
2416;SDS011;1219;48.736;9.330;2023-09-19T05:10:07;1.90;;;1.43;;
2416;SDS011;1219;48.736;9.330;2023-09-19T05:12:36;1.37;;;1.27;;
2416;SDS011;1219;48.736;9.330;2023-09-19T05:15:05;1.30;;;1.20;;
2416;SDS011;1219;48.736;9.330;2023-09-19T05:17:32;2.40;;;1.40;;
2416;SDS011;1219;48.736;9.330;2023-09-19T05:19:58;1.60;;;1.50;;
2416;SDS011;1219;48.736;9.330;2023-09-19T05:22:30;1.63;;;1.53;;
2416;SDS011;1219;48.736;9.330;2023-09-19T05:24:57;2.90;;;1.50;;
2416;SDS011;1219;48.736;9.330;2023-09-19T05:27:23;1.47;;;1.37;;
2416;SDS011;1219;48.736;9.330;2023-09-19T05:29:49;1.53;;;1.30;;
2416;SDS011;1219;48.736;9.330;2023-09-19T05:32:18;1.87;;;1.77;;
2416;SDS011;1219;48.736;9.330;2023-09-19T05:34:44;2.80;;;1.40;;
2416;SDS011;1219;48.736;9.330;2023-09-19T05:37:12;2.50;;;1.30;;
2416;SDS011;1219;48.736;9.330;2023-09-19T05:39:41;2.03;;;1.67;;
2416;SDS011;1219;48.736;9.330;2023-09-19T05:42:07;2.07;;;1.47;;
2416;SDS011;1219;48.736;9.330;2023-09-19T05:44:33;1.60;;;1.50;;
2416;SDS011;1219;48.736;9.330;2023-09-19T05:46:59;1.40;;;1.30;;
2416;SDS011;1219;48.736;9.330;2023-09-19T05:49:25;1.67;;;1.40;;
2416;SDS011;1219;48.736;9.330;2023-09-19T05:51:52;3.90;;;1.50;;
2416;SDS011;1219;48.736;9.330;2023-09-19T05:54:20;1.70;;;1.40;;
2416;SDS011;1219;48.736;9.330;2023-09-19T05:56:46;1.73;;;1.57;;
2416;SDS011;1219;48.736;9.330;2023-09-19T05:59:12;1.60;;;1.37;;
2416;SDS011;1219;48.736;9.330;2023-09-19T06:01:42;1.93;;;1.50;;
2416;SDS011;1219;48.736;9.330;2023-09-19T06:04:07;1.40;;;1.30;;
2416;SDS011;1219;48.736;9.330;2023-09-19T06:06:33;2.07;;;1.60;;
2416;SDS011;1219;48.736;9.330;2023-09-19T06:09:03;4.80;;;1.53;;
2416;SDS011;1219;48.736;9.330;2023-09-19T06:11:30;2.23;;;2.03;;
2416;SDS011;1219;48.736;9.330;2023-09-19T06:13:59;1.70;;;1.60;;
2416;SDS011;1219;48.736;9.330;2023-09-19T06:16:27;3.83;;;1.60;;
2416;SDS011;1219;48.736;9.330;2023-09-19T06:18:53;1.83;;;1.40;;
2416;SDS011;1219;48.736;9.330;2023-09-19T06:21:20;2.60;;;1.60;;
2416;SDS011;1219;48.736;9.330;2023-09-19T06:23:46;1.93;;;1.60;;
2416;SDS011;1219;48.736;9.330;2023-09-19T06:26:12;3.90;;;2.10;;
2416;SDS011;1219;48.736;9.330;2023-09-19T06:28:38;2.00;;;1.80;;
2416;SDS011;1219;48.736;9.330;2023-09-19T06:31:04;2.10;;;2.00;;
2416;SDS011;1219;48.736;9.330;2023-09-19T06:33:34;1.70;;;1.60;;
2416;SDS011;1219;48.736;9.330;2023-09-19T06:36:03;5.13;;;1.80;;
2416;SDS011;1219;48.736;9.330;2023-09-19T06:38:30;2.20;;;1.63;;
2416;SDS011;1219;48.736;9.330;2023-09-19T06:40:58;3.87;;;1.70;;
2416;SDS011;1219;48.736;9.330;2023-09-19T06:43:24;3.10;;;1.50;;
2416;SDS011;1219;48.736;9.330;2023-09-19T06:45:50;1.90;;;1.70;;
2416;SDS011;1219;48.736;9.330;2023-09-19T06:48:19;2.27;;;1.70;;
2416;SDS011;1219;48.736;9.330;2023-09-19T06:50:46;1.70;;;1.60;;
2416;SDS011;1219;48.736;9.330;2023-09-19T06:53:13;3.20;;;1.80;;
2416;SDS011;1219;48.736;9.330;2023-09-19T06:55:39;2.53;;;1.80;;
2416;SDS011;1219;48.736;9.330;2023-09-19T06:58:05;2.00;;;1.67;;
2416;SDS011;1219;48.736;9.330;2023-09-19T07:00:31;3.10;;;1.80;;
2416;SDS011;1219;48.736;9.330;2023-09-19T07:03:04;2.03;;;1.90;;
2416;SDS011;1219;48.736;9.330;2023-09-19T07:05:34;2.87;;;1.83;;
2416;SDS011;1219;48.736;9.330;2023-09-19T07:08:04;3.47;;;1.67;;
2416;SDS011;1219;48.736;9.330;2023-09-19T07:10:31;2.03;;;1.83;;
2416;SDS011;1219;48.736;9.330;2023-09-19T07:13:00;1.50;;;1.40;;
2416;SDS011;1219;48.736;9.330;2023-09-19T07:15:27;1.77;;;1.63;;
2416;SDS011;1219;48.736;9.330;2023-09-19T07:17:55;1.70;;;1.60;;
2416;SDS011;1219;48.736;9.330;2023-09-19T07:20:22;2.80;;;1.80;;
2416;SDS011;1219;48.736;9.330;2023-09-19T07:22:51;3.70;;;1.77;;
2416;SDS011;1219;48.736;9.330;2023-09-19T07:25:17;3.80;;;1.63;;
2416;SDS011;1219;48.736;9.330;2023-09-19T07:27:43;3.80;;;1.80;;
2416;SDS011;1219;48.736;9.330;2023-09-19T07:30:10;1.67;;;1.50;;
2416;SDS011;1219;48.736;9.330;2023-09-19T07:32:36;1.93;;;1.60;;
2416;SDS011;1219;48.736;9.330;2023-09-19T07:35:03;2.63;;;1.50;;
2416;SDS011;1219;48.736;9.330;2023-09-19T07:37:29;2.10;;;1.63;;
2416;SDS011;1219;48.736;9.330;2023-09-19T07:39:58;1.90;;;1.53;;
2416;SDS011;1219;48.736;9.330;2023-09-19T07:42:24;1.67;;;1.57;;
2416;SDS011;1219;48.736;9.330;2023-09-19T07:44:51;2.40;;;1.80;;
2416;SDS011;1219;48.736;9.330;2023-09-19T07:47:18;2.90;;;1.57;;
2416;SDS011;1219;48.736;9.330;2023-09-19T07:49:47;4.67;;;2.00;;
2416;SDS011;1219;48.736;9.330;2023-09-19T07:52:13;1.50;;;1.40;;
2416;SDS011;1219;48.736;9.330;2023-09-19T07:54:40;2.83;;;1.57;;
2416;SDS011;1219;48.736;9.330;2023-09-19T07:57:06;1.70;;;1.60;;
2416;SDS011;1219;48.736;9.330;2023-09-19T07:59:33;1.63;;;1.43;;
2416;SDS011;1219;48.736;9.330;2023-09-19T08:01:58;1.40;;;1.30;;
2416;SDS011;1219;48.736;9.330;2023-09-19T08:04:25;2.07;;;1.40;;
2416;SDS011;1219;48.736;9.330;2023-09-19T08:06:51;2.00;;;1.50;;
2416;SDS011;1219;48.736;9.330;2023-09-19T08:09:17;1.93;;;1.50;;
2416;SDS011;1219;48.736;9.330;2023-09-19T08:11:46;1.70;;;1.60;;
2416;SDS011;1219;48.736;9.330;2023-09-19T08:14:13;4.10;;;1.60;;
2416;SDS011;1219;48.736;9.330;2023-09-19T08:16:39;2.60;;;2.40;;
2416;SDS011;1219;48.736;9.330;2023-09-19T08:19:07;2.37;;;1.63;;
2416;SDS011;1219;48.736;9.330;2023-09-19T08:21:33;2.70;;;1.77;;
2416;SDS011;1219;48.736;9.330;2023-09-19T08:23:59;3.63;;;1.70;;
2416;SDS011;1219;48.736;9.330;2023-09-19T08:26:26;3.63;;;1.70;;
2416;SDS011;1219;48.736;9.330;2023-09-19T08:28:53;4.33;;;1.40;;
2416;SDS011;1219;48.736;9.330;2023-09-19T08:31:20;1.40;;;1.30;;
2416;SDS011;1219;48.736;9.330;2023-09-19T08:33:46;5.43;;;1.30;;
2416;SDS011;1219;48.736;9.330;2023-09-19T08:36:14;1.60;;;1.50;;
2416;SDS011;1219;48.736;9.330;2023-09-19T08:38:40;1.60;;;1.50;;
2416;SDS011;1219;48.736;9.330;2023-09-19T08:41:06;1.67;;;1.57;;
2416;SDS011;1219;48.736;9.330;2023-09-19T08:43:33;2.80;;;1.60;;
2416;SDS011;1219;48.736;9.330;2023-09-19T08:48:31;1.60;;;1.50;;
2416;SDS011;1219;48.736;9.330;2023-09-19T08:53:41;2.50;;;1.60;;
2416;SDS011;1219;48.736;9.330;2023-09-19T08:56:08;1.50;;;1.40;;
2416;SDS011;1219;48.736;9.330;2023-09-19T08:58:38;1.50;;;1.40;;
2416;SDS011;1219;48.736;9.330;2023-09-19T09:01:05;1.93;;;1.50;;
2416;SDS011;1219;48.736;9.330;2023-09-19T09:03:32;1.60;;;1.50;;
2416;SDS011;1219;48.736;9.330;2023-09-19T09:05:59;1.67;;;1.47;;
2416;SDS011;1219;48.736;9.330;2023-09-19T09:08:26;1.60;;;1.50;;
2416;SDS011;1219;48.736;9.330;2023-09-19T09:10:52;1.90;;;1.80;;
2416;SDS011;1219;48.736;9.330;2023-09-19T09:13:18;1.90;;;1.60;;
2416;SDS011;1219;48.736;9.330;2023-09-19T09:15:46;1.67;;;1.57;;
2416;SDS011;1219;48.736;9.330;2023-09-19T09:18:13;1.50;;;1.40;;
2416;SDS011;1219;48.736;9.330;2023-09-19T09:20:39;3.90;;;1.50;;
2416;SDS011;1219;48.736;9.330;2023-09-19T09:23:06;1.60;;;1.50;;
2416;SDS011;1219;48.736;9.330;2023-09-19T09:25:47;1.50;;;1.40;;
2416;SDS011;1219;48.736;9.330;2023-09-19T09:28:25;1.63;;;1.43;;
2416;SDS011;1219;48.736;9.330;2023-09-19T09:30:53;1.70;;;1.50;;
2416;SDS011;1219;48.736;9.330;2023-09-19T09:33:19;1.70;;;1.60;;
2416;SDS011;1219;48.736;9.330;2023-09-19T09:35:50;1.53;;;1.43;;
2416;SDS011;1219;48.736;9.330;2023-09-19T09:38:18;1.70;;;1.60;;
2416;SDS011;1219;48.736;9.330;2023-09-19T09:40:51;1.60;;;1.50;;
2416;SDS011;1219;48.736;9.330;2023-09-19T09:43:26;1.97;;;1.60;;
2416;SDS011;1219;48.736;9.330;2023-09-19T09:51:42;1.67;;;1.40;;
2416;SDS011;1219;48.736;9.330;2023-09-19T09:54:11;1.60;;;1.50;;
2416;SDS011;1219;48.736;9.330;2023-09-19T09:56:51;1.80;;;1.70;;
2416;SDS011;1219;48.736;9.330;2023-09-19T09:59:18;1.70;;;1.60;;
2416;SDS011;1219;48.736;9.330;2023-09-19T10:01:48;1.50;;;1.40;;
2416;SDS011;1219;48.736;9.330;2023-09-19T10:04:36;1.80;;;1.70;;
2416;SDS011;1219;48.736;9.330;2023-09-19T10:07:09;1.50;;;1.40;;
2416;SDS011;1219;48.736;9.330;2023-09-19T10:09:45;1.60;;;1.50;;
2416;SDS011;1219;48.736;9.330;2023-09-19T10:12:15;2.17;;;1.97;;
2416;SDS011;1219;48.736;9.330;2023-09-19T10:14:42;4.63;;;1.30;;
2416;SDS011;1219;48.736;9.330;2023-09-19T10:17:12;1.57;;;1.47;;
2416;SDS011;1219;48.736;9.330;2023-09-19T10:19:53;1.83;;;1.60;;
2416;SDS011;1219;48.736;9.330;2023-09-19T10:22:22;1.40;;;1.30;;
2416;SDS011;1219;48.736;9.330;2023-09-19T10:24:49;1.67;;;1.40;;
2416;SDS011;1219;48.736;9.330;2023-09-19T10:27:18;1.90;;;1.50;;
2416;SDS011;1219;48.736;9.330;2023-09-19T10:29:48;2.20;;;1.90;;
2416;SDS011;1219;48.736;9.330;2023-09-19T10:32:20;2.30;;;1.37;;
2416;SDS011;1219;48.736;9.330;2023-09-19T10:34:48;1.60;;;1.33;;
2416;SDS011;1219;48.736;9.330;2023-09-19T10:37:15;1.63;;;1.40;;
2416;SDS011;1219;48.736;9.330;2023-09-19T10:39:44;1.40;;;1.30;;
2416;SDS011;1219;48.736;9.330;2023-09-19T10:42:11;2.60;;;1.70;;
2416;SDS011;1219;48.736;9.330;2023-09-19T10:44:42;2.17;;;1.30;;
2416;SDS011;1219;48.736;9.330;2023-09-19T10:47:09;1.90;;;1.40;;
2416;SDS011;1219;48.736;9.330;2023-09-19T10:49:35;1.50;;;1.40;;
2416;SDS011;1219;48.736;9.330;2023-09-19T10:52:01;1.60;;;1.50;;
2416;SDS011;1219;48.736;9.330;2023-09-19T10:54:29;2.53;;;1.50;;
2416;SDS011;1219;48.736;9.330;2023-09-19T10:56:57;1.53;;;1.30;;
2416;SDS011;1219;48.736;9.330;2023-09-19T10:59:24;1.33;;;1.23;;
2416;SDS011;1219;48.736;9.330;2023-09-19T11:01:51;1.47;;;1.37;;
2416;SDS011;1219;48.736;9.330;2023-09-19T11:04:21;1.33;;;1.23;;
2416;SDS011;1219;48.736;9.330;2023-09-19T11:09:42;1.50;;;1.40;;
2416;SDS011;1219;48.736;9.330;2023-09-19T11:12:10;1.60;;;1.50;;
2416;SDS011;1219;48.736;9.330;2023-09-19T11:14:37;1.50;;;1.40;;
2416;SDS011;1219;48.736;9.330;2023-09-19T11:22:19;1.40;;;1.30;;
2416;SDS011;1219;48.736;9.330;2023-09-19T11:24:47;2.70;;;1.40;;
2416;SDS011;1219;48.736;9.330;2023-09-19T11:27:15;1.70;;;1.60;;
2416;SDS011;1219;48.736;9.330;2023-09-19T11:29:43;1.47;;;1.37;;
2416;SDS011;1219;48.736;9.330;2023-09-19T11:32:09;1.50;;;1.20;;
2416;SDS011;1219;48.736;9.330;2023-09-19T11:37:02;2.07;;;1.50;;
2416;SDS011;1219;48.736;9.330;2023-09-19T11:39:29;2.00;;;1.43;;
2416;SDS011;1219;48.736;9.330;2023-09-19T11:41:55;1.57;;;1.20;;
2416;SDS011;1219;48.736;9.330;2023-09-19T11:49:18;1.83;;;1.47;;
2416;SDS011;1219;48.736;9.330;2023-09-19T11:51:50;1.87;;;1.63;;
2416;SDS011;1219;48.736;9.330;2023-09-19T11:54:19;2.77;;;1.63;;
2416;SDS011;1219;48.736;9.330;2023-09-19T11:56:50;5.80;;;1.40;;
2416;SDS011;1219;48.736;9.330;2023-09-19T11:59:31;2.03;;;1.43;;
2416;SDS011;1219;48.736;9.330;2023-09-19T12:02:01;1.70;;;1.50;;
2416;SDS011;1219;48.736;9.330;2023-09-19T12:09:36;1.40;;;1.30;;
2416;SDS011;1219;48.736;9.330;2023-09-19T12:12:02;2.03;;;1.70;;
2416;SDS011;1219;48.736;9.330;2023-09-19T12:14:28;1.50;;;1.40;;
2416;SDS011;1219;48.736;9.330;2023-09-19T12:16:54;1.70;;;1.60;;
2416;SDS011;1219;48.736;9.330;2023-09-19T12:19:21;1.40;;;1.30;;
2416;SDS011;1219;48.736;9.330;2023-09-19T12:21:56;1.70;;;1.60;;
2416;SDS011;1219;48.736;9.330;2023-09-19T12:24:23;1.47;;;1.37;;
2416;SDS011;1219;48.736;9.330;2023-09-19T12:26:51;1.70;;;1.60;;
2416;SDS011;1219;48.736;9.330;2023-09-19T12:29:18;1.53;;;1.43;;
2416;SDS011;1219;48.736;9.330;2023-09-19T12:31:55;2.40;;;1.50;;
2416;SDS011;1219;48.736;9.330;2023-09-19T12:34:25;2.60;;;1.50;;
2416;SDS011;1219;48.736;9.330;2023-09-19T12:39:37;1.93;;;1.60;;
2416;SDS011;1219;48.736;9.330;2023-09-19T12:42:03;1.63;;;1.30;;
2416;SDS011;1219;48.736;9.330;2023-09-19T12:44:33;3.67;;;1.40;;
2416;SDS011;1219;48.736;9.330;2023-09-19T12:47:00;1.60;;;1.50;;
2416;SDS011;1219;48.736;9.330;2023-09-19T12:49:26;1.60;;;1.50;;
2416;SDS011;1219;48.736;9.330;2023-09-19T12:51:54;1.90;;;1.30;;
2416;SDS011;1219;48.736;9.330;2023-09-19T12:54:23;2.10;;;1.40;;
2416;SDS011;1219;48.736;9.330;2023-09-19T12:56:50;1.60;;;1.50;;
2416;SDS011;1219;48.736;9.330;2023-09-19T12:59:16;2.17;;;2.03;;
2416;SDS011;1219;48.736;9.330;2023-09-19T13:01:42;1.40;;;1.30;;
2416;SDS011;1219;48.736;9.330;2023-09-19T13:04:16;1.70;;;1.60;;
2416;SDS011;1219;48.736;9.330;2023-09-19T13:06:51;1.70;;;1.60;;
2416;SDS011;1219;48.736;9.330;2023-09-19T13:09:17;1.40;;;1.30;;
2416;SDS011;1219;48.736;9.330;2023-09-19T13:11:45;2.10;;;1.40;;
2416;SDS011;1219;48.736;9.330;2023-09-19T13:14:14;1.30;;;1.20;;
2416;SDS011;1219;48.736;9.330;2023-09-19T13:19:44;1.40;;;1.30;;
2416;SDS011;1219;48.736;9.330;2023-09-19T13:24:58;1.47;;;1.20;;
2416;SDS011;1219;48.736;9.330;2023-09-19T13:27:25;1.63;;;1.40;;
2416;SDS011;1219;48.736;9.330;2023-09-19T13:29:52;1.30;;;1.20;;
2416;SDS011;1219;48.736;9.330;2023-09-19T13:32:18;2.30;;;1.40;;
2416;SDS011;1219;48.736;9.330;2023-09-19T13:34:44;1.80;;;1.20;;
2416;SDS011;1219;48.736;9.330;2023-09-19T13:37:10;2.20;;;1.47;;
2416;SDS011;1219;48.736;9.330;2023-09-19T13:39:37;1.43;;;1.30;;
2416;SDS011;1219;48.736;9.330;2023-09-19T13:42:07;1.47;;;1.30;;
2416;SDS011;1219;48.736;9.330;2023-09-19T13:44:36;1.43;;;1.33;;
2416;SDS011;1219;48.736;9.330;2023-09-19T13:47:03;1.60;;;1.30;;
2416;SDS011;1219;48.736;9.330;2023-09-19T13:49:34;1.40;;;1.30;;
2416;SDS011;1219;48.736;9.330;2023-09-19T13:52:01;1.20;;;1.10;;
2416;SDS011;1219;48.736;9.330;2023-09-19T13:54:30;1.37;;;1.27;;
2416;SDS011;1219;48.736;9.330;2023-09-19T13:56:56;1.37;;;1.20;;
2416;SDS011;1219;48.736;9.330;2023-09-19T13:59:21;1.40;;;1.30;;
2416;SDS011;1219;48.736;9.330;2023-09-19T14:01:49;2.37;;;1.40;;
2416;SDS011;1219;48.736;9.330;2023-09-19T14:04:15;1.13;;;1.03;;
2416;SDS011;1219;48.736;9.330;2023-09-19T14:06:42;1.37;;;1.27;;
2416;SDS011;1219;48.736;9.330;2023-09-19T14:09:08;1.20;;;0.90;;
2416;SDS011;1219;48.736;9.330;2023-09-19T14:11:35;1.27;;;0.90;;
2416;SDS011;1219;48.736;9.330;2023-09-19T14:14:01;2.30;;;1.03;;
2416;SDS011;1219;48.736;9.330;2023-09-19T14:16:29;1.73;;;1.00;;
2416;SDS011;1219;48.736;9.330;2023-09-19T14:18:56;1.77;;;1.20;;
2416;SDS011;1219;48.736;9.330;2023-09-19T14:21:23;1.07;;;1.07;;
2416;SDS011;1219;48.736;9.330;2023-09-19T14:23:49;4.00;;;1.37;;
2416;SDS011;1219;48.736;9.330;2023-09-19T14:26:15;1.40;;;1.10;;
2416;SDS011;1219;48.736;9.330;2023-09-19T14:28:43;1.10;;;1.00;;
2416;SDS011;1219;48.736;9.330;2023-09-19T14:31:10;1.00;;;0.90;;
2416;SDS011;1219;48.736;9.330;2023-09-19T14:33:36;5.07;;;1.20;;
2416;SDS011;1219;48.736;9.330;2023-09-19T14:36:07;2.03;;;1.10;;
2416;SDS011;1219;48.736;9.330;2023-09-19T14:38:34;1.10;;;1.00;;
2416;SDS011;1219;48.736;9.330;2023-09-19T14:41:01;1.67;;;1.40;;
2416;SDS011;1219;48.736;9.330;2023-09-19T14:43:27;1.20;;;1.10;;
2416;SDS011;1219;48.736;9.330;2023-09-19T14:45:55;1.50;;;1.40;;
2416;SDS011;1219;48.736;9.330;2023-09-19T14:48:22;2.73;;;1.30;;
2416;SDS011;1219;48.736;9.330;2023-09-19T14:50:50;1.30;;;1.20;;
2416;SDS011;1219;48.736;9.330;2023-09-19T14:53:16;1.50;;;1.40;;
2416;SDS011;1219;48.736;9.330;2023-09-19T14:55:42;2.43;;;1.40;;
2416;SDS011;1219;48.736;9.330;2023-09-19T14:58:10;2.20;;;1.20;;
2416;SDS011;1219;48.736;9.330;2023-09-19T15:00:37;1.50;;;1.40;;
2416;SDS011;1219;48.736;9.330;2023-09-19T15:03:03;1.60;;;1.50;;
2416;SDS011;1219;48.736;9.330;2023-09-19T15:05:29;1.50;;;1.40;;
2416;SDS011;1219;48.736;9.330;2023-09-19T15:07:56;1.60;;;1.50;;
2416;SDS011;1219;48.736;9.330;2023-09-19T15:10:23;1.50;;;1.40;;
2416;SDS011;1219;48.736;9.330;2023-09-19T15:12:49;1.50;;;1.40;;
2416;SDS011;1219;48.736;9.330;2023-09-19T15:15:15;1.40;;;1.30;;
2416;SDS011;1219;48.736;9.330;2023-09-19T15:17:41;3.40;;;1.40;;
2416;SDS011;1219;48.736;9.330;2023-09-19T15:20:07;1.60;;;1.50;;
2416;SDS011;1219;48.736;9.330;2023-09-19T15:22:33;1.73;;;1.63;;
2416;SDS011;1219;48.736;9.330;2023-09-19T15:25:00;1.53;;;1.43;;
2416;SDS011;1219;48.736;9.330;2023-09-19T15:27:27;1.70;;;1.50;;
2416;SDS011;1219;48.736;9.330;2023-09-19T15:29:53;1.60;;;1.50;;
2416;SDS011;1219;48.736;9.330;2023-09-19T15:32:19;2.50;;;1.30;;
2416;SDS011;1219;48.736;9.330;2023-09-19T15:34:47;1.50;;;1.40;;
2416;SDS011;1219;48.736;9.330;2023-09-19T15:37:13;2.00;;;1.40;;
2416;SDS011;1219;48.736;9.330;2023-09-19T15:39:39;1.30;;;1.20;;
2416;SDS011;1219;48.736;9.330;2023-09-19T15:42:05;1.40;;;1.30;;
2416;SDS011;1219;48.736;9.330;2023-09-19T15:44:31;1.43;;;1.33;;
2416;SDS011;1219;48.736;9.330;2023-09-19T15:46:57;1.47;;;1.37;;
2416;SDS011;1219;48.736;9.330;2023-09-19T15:49:24;1.40;;;1.30;;
2416;SDS011;1219;48.736;9.330;2023-09-19T15:51:50;1.50;;;1.30;;
2416;SDS011;1219;48.736;9.330;2023-09-19T15:54:16;1.37;;;1.27;;
2416;SDS011;1219;48.736;9.330;2023-09-19T15:56:43;1.50;;;1.40;;
2416;SDS011;1219;48.736;9.330;2023-09-19T15:59:09;1.70;;;1.60;;
2416;SDS011;1219;48.736;9.330;2023-09-19T16:01:39;1.37;;;1.27;;
2416;SDS011;1219;48.736;9.330;2023-09-19T16:04:08;1.60;;;1.50;;
2416;SDS011;1219;48.736;9.330;2023-09-19T16:06:35;1.63;;;1.30;;